Time;durP1;ratioP1;P1;durP2;ratioP2;P2;SDS_P1;SDS_P2;PMS_P1;PMS_P2;Temp;Humidity;BMP_temperature;BMP_pressure;BME280_temperature;BME280_humidity;BME280_pressure;Samples;Min_cycle;Max_cycle;Signal;HPM_P1;HPM_P2
2022/09/02 00:01:21;;;;;;;5.85;5.35;;;;;;;;;;5053690;28;20048;-67
2022/09/02 00:03:48;;;;;;;5.00;4.60;;;;;;;;;;5019850;28;20052;-66
2022/09/02 00:06:15;;;;;;;5.40;4.90;;;;;;;;;;5035921;28;20053;-66
2022/09/02 00:08:42;;;;;;;6.85;4.53;;;;;;;;;;5053067;28;20555;-67
2022/09/02 00:11:13;;;;;;;5.60;5.15;;;;;;;;;;5035845;28;20052;-66
2022/09/02 00:13:40;;;;;;;5.75;5.07;;;;;;;;;;5035990;28;20045;-65
2022/09/02 00:16:09;;;;;;;4.82;4.43;;;;;;;;;;5035752;28;20048;-65
2022/09/02 00:18:36;;;;;;;5.13;4.35;;;;;;;;;;5035336;28;20103;-66
2022/09/02 00:21:03;;;;;;;4.93;4.43;;;;;;;;;;5035529;28;20495;-65
2022/09/02 00:23:30;;;;;;;4.53;4.22;;;;;;;;;;5053084;28;20056;-66
2022/09/02 00:25:57;;;;;;;4.53;4.15;;;;;;;;;;5052967;28;20049;-66
2022/09/02 00:28:23;;;;;;;4.80;4.22;;;;;;;;;;5035091;28;20492;-66
2022/09/02 00:30:50;;;;;;;4.55;4.15;;;;;;;;;;5035222;28;20049;-66
2022/09/02 00:33:17;;;;;;;4.20;3.90;;;;;;;;;;5052022;28;20482;-64
2022/09/02 00:35:44;;;;;;;4.00;3.70;;;;;;;;;;5035219;28;20057;-65
2022/09/02 00:38:11;;;;;;;5.95;3.53;;;;;;;;;;5034935;28;20053;-66
2022/09/02 00:40:38;;;;;;;4.30;3.90;;;;;;;;;;5052703;28;20075;-65
2022/09/02 00:43:07;;;;;;;5.53;4.10;;;;;;;;;;5019427;28;20044;-65
2022/09/02 00:45:35;;;;;;;3.67;3.35;;;;;;;;;;5019020;28;20055;-65
2022/09/02 00:48:02;;;;;;;4.03;3.67;;;;;;;;;;5034856;28;20059;-64
2022/09/02 00:50:31;;;;;;;3.97;3.63;;;;;;;;;;5018653;28;20048;-65
2022/09/02 00:53:04;;;;;;;3.88;3.58;;;;;;;;;;5018893;28;20048;-65
2022/09/02 00:55:43;;;;;;;4.47;4.00;;;;;;;;;;5019521;28;20057;-66
2022/09/02 00:58:19;;;;;;;9.13;3.67;;;;;;;;;;5035278;28;20049;-65
2022/09/02 01:00:47;;;;;;;4.22;3.50;;;;;;;;;;5034894;28;20053;-66
2022/09/02 01:03:16;;;;;;;4.10;3.70;;;;;;;;;;5018220;28;20041;-65
2022/09/02 01:05:45;;;;;;;4.93;3.47;;;;;;;;;;5018364;28;20048;-65
2022/09/02 01:08:14;;;;;;;4.18;3.78;;;;;;;;;;5018587;28;20052;-65
2022/09/02 01:10:41;;;;;;;3.90;3.60;;;;;;;;;;5018222;28;20485;-64
2022/09/02 01:13:12;;;;;;;5.15;3.40;;;;;;;;;;5018469;28;20488;-65
2022/09/02 01:15:45;;;;;;;5.18;3.38;;;;;;;;;;5034511;28;20087;-65
2022/09/02 01:18:19;;;;;;;;;;;;;;;;;;5035343;28;20049;-66
2022/09/02 01:20:45;;;;;;;4.30;3.92;;;;;;;;;;5034222;28;19921;-66
2022/09/02 01:23:13;;;;;;;7.13;3.92;;;;;;;;;;5034552;28;20052;-65
2022/09/02 01:25:40;;;;;;;3.63;3.33;;;;;;;;;;5018303;28;20069;-65
2022/09/02 01:28:09;;;;;;;4.60;3.90;;;;;;;;;;5018951;28;20049;-65
2022/09/02 01:30:38;;;;;;;4.00;3.70;;;;;;;;;;5051714;28;20053;-65
2022/09/02 01:33:05;;;;;;;3.95;3.60;;;;;;;;;;5052074;28;20045;-65
2022/09/02 01:35:31;;;;;;;6.10;3.72;;;;;;;;;;5051994;28;20075;-66
2022/09/02 01:38:00;;;;;;;4.32;3.92;;;;;;;;;;5034055;28;20049;-65
2022/09/02 01:40:28;;;;;;;4.53;4.05;;;;;;;;;;5051760;28;20049;-65
2022/09/02 01:42:57;;;;;;;5.55;4.10;;;;;;;;;;5017780;28;20516;-65
2022/09/02 01:45:24;;;;;;;4.15;3.67;;;;;;;;;;5033962;28;20048;-65
2022/09/02 01:47:51;;;;;;;4.10;3.80;;;;;;;;;;5051477;28;20060;-65
2022/09/02 01:50:18;;;;;;;8.10;4.50;;;;;;;;;;5034061;28;20045;-65
2022/09/02 01:52:44;;;;;;;5.75;4.30;;;;;;;;;;5034003;28;20049;-65
2022/09/02 01:55:11;;;;;;;3.90;3.60;;;;;;;;;;5051644;28;20049;-65
2022/09/02 01:57:38;;;;;;;3.92;3.63;;;;;;;;;;5033936;28;20055;-65
2022/09/02 02:00:08;;;;;;;4.53;4.13;;;;;;;;;;5033726;28;20519;-65
2022/09/02 02:02:34;;;;;;;4.20;3.90;;;;;;;;;;5017833;28;20428;-65
2022/09/02 02:05:01;;;;;;;4.43;3.83;;;;;;;;;;5051694;28;20053;-65
2022/09/02 02:07:28;;;;;;;4.43;4.10;;;;;;;;;;5051538;28;20048;-65
2022/09/02 02:09:55;;;;;;;4.63;4.22;;;;;;;;;;5051138;28;20045;-66
2022/09/02 02:12:22;;;;;;;4.28;3.95;;;;;;;;;;5051709;28;20053;-66
2022/09/02 02:14:48;;;;;;;4.80;4.40;;;;;;;;;;5033950;28;20049;-67
2022/09/02 02:17:15;;;;;;;4.70;4.30;;;;;;;;;;5033981;28;20057;-66
2022/09/02 02:19:42;;;;;;;4.45;4.05;;;;;;;;;;5033309;28;20049;-65
2022/09/02 02:22:09;;;;;;;6.03;4.60;;;;;;;;;;5051372;28;20045;-66
2022/09/02 02:24:36;;;;;;;5.00;4.45;;;;;;;;;;5033557;28;20528;-65
2022/09/02 02:27:03;;;;;;;5.20;4.45;;;;;;;;;;5051329;28;20055;-66
2022/09/02 02:29:30;;;;;;;5.18;4.18;;;;;;;;;;5051433;28;20053;-65
2022/09/02 02:31:56;;;;;;;6.72;4.93;;;;;;;;;;5033776;28;20419;-65
2022/09/02 02:34:23;;;;;;;5.30;4.65;;;;;;;;;;5051501;28;20056;-66
2022/09/02 02:36:50;;;;;;;5.20;4.50;;;;;;;;;;5033929;28;20049;-65
2022/09/02 02:39:17;;;;;;;4.32;3.92;;;;;;;;;;5051161;28;20053;-66
2022/09/02 02:41:43;;;;;;;6.05;4.30;;;;;;;;;;5051159;28;20049;-65
2022/09/02 02:44:10;;;;;;;4.95;4.35;;;;;;;;;;5051322;28;20055;-66
2022/09/02 02:46:37;;;;;;;4.72;4.32;;;;;;;;;;5051066;28;20049;-66
2022/09/02 02:49:04;;;;;;;4.43;4.03;;;;;;;;;;5050893;28;20049;-65
2022/09/02 02:51:32;;;;;;;5.07;4.68;;;;;;;;;;5017172;28;20056;-65
2022/09/02 02:54:00;;;;;;;4.38;3.97;;;;;;;;;;5017180;28;20049;-65
2022/09/02 02:56:28;;;;;;;4.28;3.88;;;;;;;;;;5034317;28;20060;-65
2022/09/02 02:58:55;;;;;;;4.68;4.28;;;;;;;;;;5036826;28;20052;-65
2022/09/02 03:01:22;;;;;;;4.35;3.95;;;;;;;;;;5054698;28;20045;-66
2022/09/02 03:03:50;;;;;;;4.70;4.10;;;;;;;;;;5020608;28;20049;-65
2022/09/02 03:06:17;;;;;;;5.63;4.40;;;;;;;;;;5054523;28;20044;-64
2022/09/02 03:08:52;;;;;;;5.20;4.20;;;;;;;;;;5038074;28;20448;-66
2022/09/02 03:11:21;;;;;;;4.75;4.35;;;;;;;;;;5037021;28;20060;-65
2022/09/02 03:13:49;;;;;;;4.70;4.20;;;;;;;;;;5054515;28;20048;-65
2022/09/02 03:16:18;;;;;;;4.53;4.13;;;;;;;;;;5036749;28;20049;-65
2022/09/02 03:18:46;;;;;;;5.25;4.75;;;;;;;;;;5053839;28;20498;-65
2022/09/02 03:21:14;;;;;;;5.47;4.50;;;;;;;;;;5058289;22;20049;-68
2022/09/02 03:23:42;;;;;;;4.80;4.25;;;;;;;;;;5059465;28;20097;-68
2022/09/02 03:26:14;;;;;;;4.22;3.92;;;;;;;;;;5059681;28;20029;-68
2022/09/02 03:28:44;;;;;;;4.57;4.00;;;;;;;;;;5059674;28;20037;-67
2022/09/02 03:31:16;;;;;;;4.60;4.20;;;;;;;;;;5059649;28;20038;-68
2022/09/02 03:33:43;;;;;;;3.97;3.58;;;;;;;;;;5059669;28;20025;-68
2022/09/02 03:36:31;;;;;;;7.13;4.25;;;;;;;;;;5059809;28;20049;-68
2022/09/02 03:38:58;;;;;;;5.45;3.78;;;;;;;;;;5059584;28;20029;-68
2022/09/02 03:41:25;;;;;;;4.20;3.80;;;;;;;;;;5059357;28;20064;-68
2022/09/02 03:43:51;;;;;;;4.97;4.47;;;;;;;;;;5059327;28;20033;-68
2022/09/02 03:46:18;;;;;;;4.18;3.78;;;;;;;;;;5059704;28;20049;-67
2022/09/02 03:48:45;;;;;;;4.40;4.00;;;;;;;;;;5059118;28;20060;-67
2022/09/02 03:51:12;;;;;;;4.88;3.95;;;;;;;;;;5059536;28;20080;-68
2022/09/02 03:53:39;;;;;;;4.97;3.88;;;;;;;;;;5059489;28;20048;-68
2022/09/02 03:56:13;;;;;;;4.65;4.07;;;;;;;;;;5059629;28;20025;-67
2022/09/02 03:58:43;;;;;;;4.35;3.90;;;;;;;;;;5059268;28;20033;-68
2022/09/02 04:01:15;;;;;;;4.30;4.00;;;;;;;;;;5058623;28;20045;-67
2022/09/02 04:03:42;;;;;;;5.40;4.72;;;;;;;;;;5059221;28;20056;-67
2022/09/02 04:06:10;;;;;;;4.40;3.80;;;;;;;;;;5059431;28;20067;-68
2022/09/02 04:08:38;;;;;;;4.50;4.10;;;;;;;;;;5059008;28;20072;-68
2022/09/02 04:11:07;;;;;;;4.82;4.30;;;;;;;;;;5059173;28;20044;-67
2022/09/02 04:13:34;;;;;;;6.30;3.78;;;;;;;;;;5058029;28;20034;-69
2022/09/02 04:16:12;;;;;;;4.18;3.78;;;;;;;;;;5035711;28;20079;-68
2022/09/02 04:18:39;;;;;;;4.38;3.97;;;;;;;;;;5034899;28;20060;-68
2022/09/02 04:21:06;;;;;;;5.22;4.38;;;;;;;;;;5033142;28;20099;-68
2022/09/02 04:23:33;;;;;;;4.32;3.95;;;;;;;;;;5034807;28;20274;-68
2022/09/02 04:26:08;;;;;;;4.40;3.55;;;;;;;;;;5034503;28;20060;-69
2022/09/02 04:28:34;;;;;;;3.40;3.10;;;;;;;;;;5034423;28;20514;-69
2022/09/02 04:31:05;;;;;;;5.07;3.03;;;;;;;;;;5034429;28;20053;-68
2022/09/02 04:33:33;;;;;;;4.57;3.42;;;;;;;;;;5034394;28;20106;-68
2022/09/02 04:36:02;;;;;;;4.30;3.17;;;;;;;;;;5032732;28;20052;-69
2022/09/02 04:38:30;;;;;;;4.43;3.20;;;;;;;;;;5032865;28;20076;-69
2022/09/02 04:40:57;;;;;;;3.50;3.20;;;;;;;;;;5033622;28;20132;-69
2022/09/02 04:43:23;;;;;;;4.28;3.53;;;;;;;;;;5033451;28;20048;-69
2022/09/02 04:45:50;;;;;;;3.80;3.50;;;;;;;;;;5032529;28;20415;-68
2022/09/02 04:48:17;;;;;;;4.53;3.63;;;;;;;;;;5033179;28;20217;-69
2022/09/02 04:50:44;;;;;;;4.00;3.70;;;;;;;;;;5033241;28;20064;-68
2022/09/02 04:53:11;;;;;;;4.35;3.88;;;;;;;;;;5033106;28;20049;-69
2022/09/02 04:55:39;;;;;;;4.18;3.78;;;;;;;;;;5033699;28;20053;-69
2022/09/02 04:58:07;;;;;;;6.50;4.60;;;;;;;;;;5032858;28;20061;-69
2022/09/02 05:00:36;;;;;;;4.10;3.70;;;;;;;;;;5032721;28;20424;-69
2022/09/02 05:03:05;;;;;;;5.38;3.88;;;;;;;;;;5033323;28;20052;-69
2022/09/02 05:05:33;;;;;;;6.60;3.75;;;;;;;;;;5033372;28;20096;-68
2022/09/02 05:08:01;;;;;;;5.53;3.55;;;;;;;;;;5032667;28;20355;-69
2022/09/02 05:10:28;;;;;;;6.85;3.17;;;;;;;;;;5032591;28;20050;-69
2022/09/02 05:12:54;;;;;;;4.03;3.63;;;;;;;;;;5032828;28;20119;-69
2022/09/02 05:15:21;;;;;;;4.97;4.03;;;;;;;;;;5032690;28;20045;-69
2022/09/02 05:17:48;;;;;;;5.75;3.47;;;;;;;;;;5031363;28;20115;-68
2022/09/02 05:20:14;;;;;;;5.18;3.30;;;;;;;;;;5032798;28;20401;-68
2022/09/02 05:22:42;;;;;;;5.15;3.83;;;;;;;;;;5032542;28;20072;-68
2022/09/02 05:25:08;;;;;;;3.80;3.40;;;;;;;;;;5032265;28;20062;-68
2022/09/02 05:27:35;;;;;;;4.88;3.42;;;;;;;;;;5032244;28;20053;-69
2022/09/02 05:30:03;;;;;;;5.35;3.53;;;;;;;;;;5031812;28;20050;-70
2022/09/02 05:32:30;;;;;;;5.22;3.38;;;;;;;;;;5032433;28;20091;-71
2022/09/02 05:35:02;;;;;;;;;;;;;;;;;;5033302;28;20133;-69
2022/09/02 05:37:29;;;;;;;3.33;2.65;;;;;;;;;;5032400;28;19928;-69
2022/09/02 05:39:56;;;;;;;3.72;3.42;;;;;;;;;;5031918;28;20061;-68
2022/09/02 05:42:23;;;;;;;6.68;2.85;;;;;;;;;;5031989;28;20072;-68
2022/09/02 05:44:49;;;;;;;5.13;3.55;;;;;;;;;;5031844;28;20045;-69
2022/09/02 05:47:16;;;;;;;6.88;3.10;;;;;;;;;;5032145;28;20501;-69
2022/09/02 05:49:43;;;;;;;4.63;3.35;;;;;;;;;;5031864;28;20420;-69
2022/09/02 05:52:11;;;;;;;3.45;2.83;;;;;;;;;;5031982;28;20052;-69
2022/09/02 05:54:38;;;;;;;2.97;2.60;;;;;;;;;;5030737;28;20412;-69
2022/09/02 05:57:08;;;;;;;3.20;2.90;;;;;;;;;;5031822;28;20137;-69
2022/09/02 05:59:37;;;;;;;3.05;2.60;;;;;;;;;;5032077;28;20087;-70
2022/09/02 06:02:04;;;;;;;3.08;2.85;;;;;;;;;;5031928;28;20052;-69
2022/09/02 06:04:31;;;;;;;9.63;3.38;;;;;;;;;;5031823;28;20041;-69
2022/09/02 06:06:57;;;;;;;5.15;3.88;;;;;;;;;;5031777;28;20053;-69
2022/09/02 06:09:24;;;;;;;4.88;2.55;;;;;;;;;;5031509;28;20416;-69
2022/09/02 06:11:51;;;;;;;3.10;2.78;;;;;;;;;;5031601;28;20049;-69
2022/09/02 06:14:20;;;;;;;4.75;2.95;;;;;;;;;;5032097;28;20072;-68
2022/09/02 06:16:49;;;;;;;3.13;2.75;;;;;;;;;;5030539;28;20061;-68
2022/09/02 06:19:16;;;;;;;4.65;2.83;;;;;;;;;;5031405;28;20077;-69
2022/09/02 06:21:45;;;;;;;3.63;3.15;;;;;;;;;;5031842;28;20432;-69
2022/09/02 06:24:13;;;;;;;5.03;2.90;;;;;;;;;;5031594;28;20443;-69
2022/09/02 06:26:40;;;;;;;3.55;2.58;;;;;;;;;;5031626;28;20052;-69
2022/09/02 06:29:07;;;;;;;3.83;3.42;;;;;;;;;;5031400;28;20103;-69
2022/09/02 06:31:34;;;;;;;7.28;2.90;;;;;;;;;;5032663;28;20123;-69
2022/09/02 06:34:02;;;;;;;4.13;2.95;;;;;;;;;;5037390;28;20053;-69
2022/09/02 06:36:29;;;;;;;3.50;2.88;;;;;;;;;;5044463;28;20101;-69
2022/09/02 06:38:57;;;;;;;3.10;2.40;;;;;;;;;;5048931;28;20059;-69
2022/09/02 06:41:27;;;;;;;4.57;2.92;;;;;;;;;;5044001;28;20056;-68
2022/09/02 06:43:58;;;;;;;3.13;2.83;;;;;;;;;;5043947;28;20049;-70
2022/09/02 06:46:31;;;;;;;2.70;2.40;;;;;;;;;;5037229;28;20423;-69
2022/09/02 06:48:58;;;;;;;3.83;2.50;;;;;;;;;;5035183;28;20261;-69
2022/09/02 06:51:33;;;;;;;3.63;2.25;;;;;;;;;;5049127;28;20061;-69
2022/09/02 06:54:00;;;;;;;2.42;2.22;;;;;;;;;;5053011;28;20049;-69
2022/09/02 06:56:26;;;;;;;3.45;2.22;;;;;;;;;;5034334;28;20059;-69
2022/09/02 06:58:53;;;;;;;2.58;2.38;;;;;;;;;;5035344;28;20405;-69
2022/09/02 07:01:22;;;;;;;2.72;2.45;;;;;;;;;;5035470;28;20072;-69
2022/09/02 07:06:46;;;;;;;3.03;2.38;;;;;;;;;;5035075;28;20054;-69
2022/09/02 07:09:15;;;;;;;2.45;2.22;;;;;;;;;;5034754;28;20053;-69
2022/09/02 07:11:46;;;;;;;4.25;2.22;;;;;;;;;;5034901;28;20053;-69
2022/09/02 07:14:18;;;;;;;2.78;2.38;;;;;;;;;;5034662;28;20046;-69
2022/09/02 07:16:47;;;;;;;3.47;1.80;;;;;;;;;;5034848;28;20123;-68
2022/09/02 07:19:14;;;;;;;2.00;1.90;;;;;;;;;;5034576;28;20136;-69
2022/09/02 07:21:47;;;;;;;2.83;2.28;;;;;;;;;;5034783;28;20083;-69
2022/09/02 07:24:13;;;;;;;1.88;1.67;;;;;;;;;;5034508;28;20049;-69
2022/09/02 07:26:40;;;;;;;2.47;1.92;;;;;;;;;;5034483;28;20068;-69
2022/09/02 07:29:08;;;;;;;2.88;1.80;;;;;;;;;;5034918;28;20053;-69
2022/09/02 07:31:36;;;;;;;2.33;1.95;;;;;;;;;;5033359;28;20100;-69
2022/09/02 07:34:04;;;;;;;4.43;1.67;;;;;;;;;;5034393;28;20060;-69
2022/09/02 07:36:33;;;;;;;2.03;1.77;;;;;;;;;;5034364;28;20364;-69
2022/09/02 07:39:01;;;;;;;3.42;2.00;;;;;;;;;;5033956;28;20049;-69
2022/09/02 07:41:28;;;;;;;2.92;1.83;;;;;;;;;;5034114;28;20056;-69
2022/09/02 07:43:55;;;;;;;3.05;1.95;;;;;;;;;;5033776;28;20132;-70
2022/09/02 07:46:25;;;;;;;3.42;2.17;;;;;;;;;;5034372;28;20076;-70
2022/09/02 07:48:52;;;;;;;3.67;1.88;;;;;;;;;;5032663;28;20522;-68
2022/09/02 07:51:18;;;;;;;2.55;2.10;;;;;;;;;;5033980;28;20053;-69
2022/09/02 07:53:45;;;;;;;3.55;2.10;;;;;;;;;;5032697;28;20056;-69
2022/09/02 07:56:12;;;;;;;2.33;1.63;;;;;;;;;;5033939;28;20057;-68
2022/09/02 07:58:40;;;;;;;2.00;1.63;;;;;;;;;;5034045;28;20115;-69
2022/09/02 08:01:08;;;;;;;2.70;1.60;;;;;;;;;;5033809;28;20054;-69
2022/09/02 08:03:37;;;;;;;6.47;1.75;;;;;;;;;;5034108;28;20054;-69
2022/09/02 08:06:04;;;;;;;3.17;1.70;;;;;;;;;;5034250;28;20052;-69
2022/09/02 08:08:31;;;;;;;3.13;1.67;;;;;;;;;;5034092;28;20057;-69
2022/09/02 08:10:57;;;;;;;3.13;1.48;;;;;;;;;;5033514;28;20051;-69
2022/09/02 08:13:24;;;;;;;4.05;1.48;;;;;;;;;;5033675;28;20134;-67
2022/09/02 08:15:53;;;;;;;4.57;1.70;;;;;;;;;;5033419;28;20080;-67
2022/09/02 08:18:20;;;;;;;2.10;1.67;;;;;;;;;;5033377;28;20053;-67
2022/09/02 08:20:48;;;;;;;2.00;1.45;;;;;;;;;;5033125;28;20508;-67
2022/09/02 08:23:14;;;;;;;1.73;1.52;;;;;;;;;;5033482;28;20409;-67
2022/09/02 08:26:01;;;;;;;1.60;1.30;;;;;;;;;;5033203;28;20050;-66
2022/09/02 08:28:30;;;;;;;2.85;1.45;;;;;;;;;;5033227;28;20049;-67
2022/09/02 08:30:57;;;;;;;7.65;2.72;;;;;;;;;;5033335;28;20049;-67
2022/09/02 08:33:24;;;;;;;1.85;1.25;;;;;;;;;;5033153;28;20052;-67
2022/09/02 08:35:50;;;;;;;2.53;1.42;;;;;;;;;;5033401;28;20493;-66
2022/09/02 08:38:17;;;;;;;1.48;1.13;;;;;;;;;;5033265;28;20053;-67
2022/09/02 08:40:44;;;;;;;3.85;1.55;;;;;;;;;;5033329;28;20084;-67
2022/09/02 08:43:41;;;;;;;1.48;1.23;;;;;;;;;;5033012;28;20111;-67
2022/09/02 08:46:10;;;;;;;2.60;1.35;;;;;;;;;;5032950;28;20566;-67
2022/09/02 08:48:44;;;;;;;3.83;1.33;;;;;;;;;;5031935;28;20053;-67
2022/09/02 08:51:28;;;;;;;3.60;1.33;;;;;;;;;;5016258;28;20104;-67
2022/09/02 08:54:29;;;;;;;1.27;1.17;;;;;;;;;;5031874;28;20144;-67
2022/09/02 08:56:56;;;;;;;1.65;1.15;;;;;;;;;;5031818;28;20072;-67
2022/09/02 08:59:26;;;;;;;2.13;1.35;;;;;;;;;;5032443;28;20056;-67
2022/09/02 09:02:07;;;;;;;1.40;1.30;;;;;;;;;;5031550;28;20415;-67
2022/09/02 09:04:57;;;;;;;1.27;1.00;;;;;;;;;;5031392;28;20059;-68
2022/09/02 09:07:34;;;;;;;1.63;1.20;;;;;;;;;;5031357;28;20496;-67
2022/09/02 09:10:12;;;;;;;2.88;1.13;;;;;;;;;;5031239;28;20454;-68
2022/09/02 09:12:38;;;;;;;2.67;1.00;;;;;;;;;;5032523;28;20052;-68
2022/09/02 09:15:24;;;;;;;1.80;1.48;;;;;;;;;;5032428;28;20084;-67
2022/09/02 09:17:59;;;;;;;3.50;0.98;;;;;;;;;;5031186;28;20058;-67
2022/09/02 09:20:29;;;;;;;3.42;1.88;;;;;;;;;;5031699;28;20452;-65
2022/09/02 09:22:57;;;;;;;1.23;1.10;;;;;;;;;;5015193;28;20396;-65
2022/09/02 09:25:30;;;;;;;1.20;1.13;;;;;;;;;;5032179;28;20152;-67
2022/09/02 09:28:00;;;;;;;3.50;1.20;;;;;;;;;;5032383;28;20115;-64
2022/09/02 09:30:27;;;;;;;1.15;0.95;;;;;;;;;;5032181;28;20056;-65
2022/09/02 09:32:59;;;;;;;4.38;1.05;;;;;;;;;;5032311;28;20060;-67
2022/09/02 09:35:29;;;;;;;2.65;0.88;;;;;;;;;;5032075;28;20401;-64
2022/09/02 09:37:56;;;;;;;2.42;1.08;;;;;;;;;;5014651;28;20060;-67
2022/09/02 09:40:29;;;;;;;1.35;0.85;;;;;;;;;;5030975;28;20049;-66
2022/09/02 09:42:56;;;;;;;3.35;0.82;;;;;;;;;;5030901;28;20056;-67
2022/09/02 09:45:33;;;;;;;4.40;1.00;;;;;;;;;;5031968;28;20045;-65
2022/09/02 09:48:17;;;;;;;1.60;1.08;;;;;;;;;;5031931;28;20099;-65
2022/09/02 09:50:46;;;;;;;2.65;1.00;;;;;;;;;;5031862;28;20053;-66
2022/09/02 09:53:25;;;;;;;2.40;0.90;;;;;;;;;;5030689;28;20053;-67
2022/09/02 09:55:57;;;;;;;0.85;0.70;;;;;;;;;;5031946;28;20056;-65
2022/09/02 09:58:42;;;;;;;1.70;1.02;;;;;;;;;;5031697;28;20136;-65
2022/09/02 10:01:24;;;;;;;4.03;0.80;;;;;;;;;;5030758;28;20060;-67
2022/09/02 10:03:51;;;;;;;0.98;0.80;;;;;;;;;;5031903;28;20057;-67
2022/09/02 10:06:23;;;;;;;2.58;1.10;;;;;;;;;;5032939;28;20119;-65
2022/09/02 10:08:55;;;;;;;1.15;0.80;;;;;;;;;;5034584;28;20060;-65
2022/09/02 10:11:31;;;;;;;0.85;0.80;;;;;;;;;;5035777;28;20463;-65
2022/09/02 10:14:15;;;;;;;2.42;0.68;;;;;;;;;;5036063;28;20050;-65
2022/09/02 10:17:07;;;;;;;2.00;0.80;;;;;;;;;;5035893;28;20097;-65
2022/09/02 10:20:08;;;;;;;1.63;0.90;;;;;;;;;;5035137;28;20053;-65
2022/09/02 10:22:40;;;;;;;3.13;1.02;;;;;;;;;;5035574;28;20057;-65
2022/09/02 10:25:41;;;;;;;3.00;0.75;;;;;;;;;;5035822;28;20084;-66
2022/09/02 10:28:39;;;;;;;1.27;0.70;;;;;;;;;;5035653;28;20096;-65
2022/09/02 10:31:55;;;;;;;1.48;0.70;;;;;;;;;;5035433;28;20108;-66
2022/09/02 10:35:23;;;;;;;1.27;0.90;;;;;;;;;;5015843;28;20472;-65
2022/09/02 10:38:18;;;;;;;1.65;0.70;;;;;;;;;;4974116;28;20061;-65
2022/09/02 10:40:49;;;;;;;2.05;1.45;;;;;;;;;;4974131;28;20506;-67
2022/09/02 10:43:24;;;;;;;1.45;1.17;;;;;;;;;;4995069;28;20108;-65
2022/09/02 10:45:54;;;;;;;1.00;0.90;;;;;;;;;;5035340;28;20057;-65
2022/09/02 10:48:36;;;;;;;2.05;1.38;;;;;;;;;;5017823;28;20075;-65
2022/09/02 10:51:02;;;;;;;1.20;0.98;;;;;;;;;;5034081;28;20458;-65
2022/09/02 10:54:03;;;;;;;1.60;0.80;;;;;;;;;;5035074;28;20050;-65
2022/09/02 10:56:42;;;;;;;3.13;1.00;;;;;;;;;;5035129;28;20060;-67
2022/09/02 10:59:12;;;;;;;1.25;0.65;;;;;;;;;;5018553;28;20053;-65
2022/09/02 11:01:55;;;;;;;0.85;0.60;;;;;;;;;;5033885;28;20050;-65
2022/09/02 11:04:32;;;;;;;1.13;0.90;;;;;;;;;;5017622;28;20049;-66
2022/09/02 11:06:59;;;;;;;2.15;1.00;;;;;;;;;;5033726;28;20041;-65
2022/09/02 11:09:36;;;;;;;1.95;1.10;;;;;;;;;;5034476;28;20053;-65
2022/09/02 11:12:15;;;;;;;4.13;0.85;;;;;;;;;;5017837;28;20393;-66
2022/09/02 11:15:03;;;;;;;1.15;1.00;;;;;;;;;;5017949;28;20107;-65
2022/09/02 11:17:36;;;;;;;3.13;0.80;;;;;;;;;;5032616;28;20049;-65
2022/09/02 11:20:37;;;;;;;1.67;1.10;;;;;;;;;;5034216;28;20049;-66
2022/09/02 11:23:25;;;;;;;0.80;0.80;;;;;;;;;;4991524;28;20415;-65
2022/09/02 11:26:00;;;;;;;1.95;0.60;;;;;;;;;;5033314;28;20128;-65
2022/09/02 11:28:47;;;;;;;1.13;0.80;;;;;;;;;;5016825;28;20463;-66
2022/09/02 11:31:23;;;;;;;1.38;0.80;;;;;;;;;;5033457;28;20049;-66
2022/09/02 11:34:04;;;;;;;0.77;0.60;;;;;;;;;;5034335;28;20053;-65
2022/09/02 11:36:30;;;;;;;3.20;0.80;;;;;;;;;;5034314;28;20061;-67
2022/09/02 11:39:03;;;;;;;1.02;0.80;;;;;;;;;;5034061;28;20061;-65
2022/09/02 11:41:38;;;;;;;3.28;0.90;;;;;;;;;;5034336;28;20079;-65
2022/09/02 11:44:18;;;;;;;0.98;0.70;;;;;;;;;;5033318;28;20064;-66
2022/09/02 11:47:06;;;;;;;1.10;0.80;;;;;;;;;;5034076;28;20053;-65
2022/09/02 11:49:40;;;;;;;1.00;0.90;;;;;;;;;;5032676;28;20061;-66
2022/09/02 11:52:20;;;;;;;0.80;0.68;;;;;;;;;;5033003;28;20057;-66
2022/09/02 11:54:50;;;;;;;4.55;1.00;;;;;;;;;;5032870;28;20053;-66
2022/09/02 11:57:22;;;;;;;1.10;0.90;;;;;;;;;;5032781;28;20336;-66
2022/09/02 11:59:49;;;;;;;1.95;0.80;;;;;;;;;;5034116;28;20049;-65
2022/09/02 12:02:45;;;;;;;0.85;0.80;;;;;;;;;;5033936;28;20401;-65
2022/09/02 12:05:34;;;;;;;1.38;0.90;;;;;;;;;;5033833;28;20061;-65
2022/09/02 12:08:08;;;;;;;1.60;0.90;;;;;;;;;;5033551;28;20451;-65
2022/09/02 12:10:38;;;;;;;1.20;0.75;;;;;;;;;;5033674;28;20050;-66
2022/09/02 12:13:06;;;;;;;1.80;1.08;;;;;;;;;;5033735;28;20055;-66
2022/09/02 12:15:35;;;;;;;0.95;0.80;;;;;;;;;;5033881;28;20041;-66
2022/09/02 12:18:13;;;;;;;1.52;1.13;;;;;;;;;;5032173;28;20057;-66
2022/09/02 12:20:43;;;;;;;1.67;1.05;;;;;;;;;;5031904;28;20053;-67
2022/09/02 12:23:51;;;;;;;1.45;0.80;;;;;;;;;;5033621;28;20100;-67
2022/09/02 12:26:18;;;;;;;0.85;0.75;;;;;;;;;;5033399;28;20644;-66
2022/09/02 12:28:45;;;;;;;1.48;0.70;;;;;;;;;;5032896;28;20050;-66
2022/09/02 12:31:27;;;;;;;0.70;0.70;;;;;;;;;;5033224;28;20484;-67
2022/09/02 12:33:54;;;;;;;3.17;0.80;;;;;;;;;;5033472;28;20462;-66
2022/09/02 12:36:36;;;;;;;2.25;0.80;;;;;;;;;;5015725;28;20100;-67
2022/09/02 12:39:21;;;;;;;0.77;0.70;;;;;;;;;;5032963;28;20057;-67
2022/09/02 12:42:06;;;;;;;1.17;0.90;;;;;;;;;;5033095;28;20538;-66
2022/09/02 12:44:57;;;;;;;1.20;0.88;;;;;;;;;;5033295;28;20093;-67
2022/09/02 12:47:58;;;;;;;1.70;0.77;;;;;;;;;;5032902;28;20057;-68
2022/09/02 12:50:35;;;;;;;1.75;0.70;;;;;;;;;;5032734;28;20053;-67
2022/09/02 12:53:21;;;;;;;0.93;0.80;;;;;;;;;;5031716;28;20049;-67
2022/09/02 12:56:03;;;;;;;1.83;0.50;;;;;;;;;;5032711;28;20076;-66
2022/09/02 12:58:39;;;;;;;0.90;0.65;;;;;;;;;;5032545;28;20049;-66
2022/09/02 13:01:30;;;;;;;2.45;0.80;;;;;;;;;;5015924;28;20479;-67
2022/09/02 13:04:15;;;;;;;1.00;0.80;;;;;;;;;;5031594;28;20053;-67
2022/09/02 13:06:51;;;;;;;1.73;0.60;;;;;;;;;;5031590;28;20045;-67
2022/09/02 13:09:35;;;;;;;1.77;0.80;;;;;;;;;;5031267;28;20049;-66
2022/09/02 13:12:28;;;;;;;1.85;0.80;;;;;;;;;;5031401;28;20060;-66
2022/09/02 13:15:10;;;;;;;1.42;1.05;;;;;;;;;;5017326;28;20492;-67
2022/09/02 13:18:05;;;;;;;1.00;0.90;;;;;;;;;;5032313;28;20049;-67
2022/09/02 13:21:03;;;;;;;0.68;0.68;;;;;;;;;;5030957;28;20099;-67
2022/09/02 13:23:48;;;;;;;0.90;0.85;;;;;;;;;;5031437;28;20049;-66
2022/09/02 13:26:35;;;;;;;2.85;0.77;;;;;;;;;;5032223;28;20053;-68
2022/09/02 13:29:54;;;;;;;0.52;0.52;;;;;;;;;;5030891;28;20132;-68
2022/09/02 13:32:28;;;;;;;1.45;0.70;;;;;;;;;;5032548;28;20095;-66
2022/09/02 13:34:56;;;;;;;1.52;0.88;;;;;;;;;;5032165;28;20496;-66
2022/09/02 13:37:29;;;;;;;0.95;0.70;;;;;;;;;;5015006;28;20050;-66
2022/09/02 13:39:56;;;;;;;1.77;0.68;;;;;;;;;;5031593;28;20084;-66
2022/09/02 13:42:27;;;;;;;1.77;0.75;;;;;;;;;;5030732;28;20496;-66
2022/09/02 13:45:16;;;;;;;0.93;0.82;;;;;;;;;;5032059;28;20049;-66
2022/09/02 13:47:45;;;;;;;0.80;0.80;;;;;;;;;;5032246;28;20045;-67
2022/09/02 13:50:18;;;;;;;1.35;0.95;;;;;;;;;;5030919;28;20076;-67
2022/09/02 13:52:47;;;;;;;1.13;0.73;;;;;;;;;;5030955;28;20053;-66
2022/09/02 13:55:33;;;;;;;0.90;0.70;;;;;;;;;;5031153;28;20053;-66
2022/09/02 13:58:05;;;;;;;1.77;0.85;;;;;;;;;;5032173;28;20099;-66
2022/09/02 14:00:33;;;;;;;3.08;0.80;;;;;;;;;;5031807;28;20057;-66
2022/09/02 14:03:02;;;;;;;1.85;0.80;;;;;;;;;;5031746;28;20421;-67
2022/09/02 14:05:29;;;;;;;1.48;1.00;;;;;;;;;;5031704;28;20085;-67
2022/09/02 14:07:57;;;;;;;1.35;1.13;;;;;;;;;;5030430;28;20053;-69
2022/09/02 14:10:28;;;;;;;1.83;0.90;;;;;;;;;;5014604;28;20049;-67
2022/09/02 14:12:55;;;;;;;1.08;0.80;;;;;;;;;;5014756;28;20424;-66
2022/09/02 14:15:32;;;;;;;0.98;0.77;;;;;;;;;;5030868;28;20054;-69
2022/09/02 14:18:24;;;;;;;6.72;1.60;;;;;;;;;;5031655;28;20045;-67
2022/09/02 14:20:57;;;;;;;4.75;0.98;;;;;;;;;;5028848;28;20049;-67
2022/09/02 14:23:24;;;;;;;0.95;0.65;;;;;;;;;;5031607;28;20049;-67
2022/09/02 14:25:56;;;;;;;3.33;0.80;;;;;;;;;;5030285;28;20053;-67
2022/09/02 14:28:24;;;;;;;2.35;0.90;;;;;;;;;;5014441;28;20060;-68
2022/09/02 14:31:07;;;;;;;4.10;0.90;;;;;;;;;;5030254;28;20474;-66
2022/09/02 14:33:38;;;;;;;2.50;1.17;;;;;;;;;;5031562;28;20462;-66
2022/09/02 14:36:26;;;;;;;1.00;0.90;;;;;;;;;;5031913;28;20053;-67
2022/09/02 14:38:54;;;;;;;3.03;0.82;;;;;;;;;;5030206;28;20057;-68
2022/09/02 14:41:29;;;;;;;3.25;1.17;;;;;;;;;;5031510;28;20416;-67
2022/09/02 14:43:57;;;;;;;2.20;0.75;;;;;;;;;;5031744;28;20049;-66
2022/09/02 14:46:26;;;;;;;3.10;1.25;;;;;;;;;;5031344;28;20046;-66
2022/09/02 14:49:04;;;;;;;1.65;1.15;;;;;;;;;;5031412;28;20049;-67
2022/09/02 14:51:35;;;;;;;1.50;0.80;;;;;;;;;;5031634;28;20065;-67
2022/09/02 14:54:03;;;;;;;3.73;0.90;;;;;;;;;;5033402;28;20053;-66
2022/09/02 14:56:46;;;;;;;1.00;0.90;;;;;;;;;;5035101;28;20107;-66
2022/09/02 14:59:13;;;;;;;3.40;0.98;;;;;;;;;;5034740;28;20049;-66
2022/09/02 15:01:45;;;;;;;1.25;0.80;;;;;;;;;;5034845;28;20056;-66
2022/09/02 15:04:13;;;;;;;;;;;;;;;;;;5034087;28;20061;-66
2022/09/02 15:06:41;;;;;;;2.55;1.02;;;;;;;;;;5034804;28;19921;-66
2022/09/02 15:09:08;;;;;;;1.75;0.90;;;;;;;;;;5034459;28;20428;-66
2022/09/02 15:11:37;;;;;;;1.05;0.70;;;;;;;;;;5033745;28;20171;-66
2022/09/02 15:14:04;;;;;;;1.15;1.02;;;;;;;;;;5033494;28;20049;-67
2022/09/02 15:16:31;;;;;;;1.55;0.90;;;;;;;;;;5034775;28;20053;-66